createdAt,value
2019-03-29T00:00:44.510Z,7.97
2019-03-29T00:03:13.148Z,10.40
2019-03-29T00:05:41.777Z,10.10
2019-03-29T00:08:10.414Z,9.70
2019-03-29T00:10:38.995Z,8.77
2019-03-29T00:13:07.554Z,9.73
2019-03-29T00:15:36.134Z,6.43
2019-03-29T00:18:04.706Z,12.10
2019-03-29T00:20:33.410Z,7.33
2019-03-29T00:23:02.072Z,7.33
2019-03-29T00:25:30.635Z,9.17
2019-03-29T00:27:59.214Z,8.83
2019-03-29T00:30:27.938Z,11.27
2019-03-29T00:32:57.835Z,8.07
2019-03-29T00:35:26.553Z,7.97
2019-03-29T00:37:55.887Z,8.27
2019-03-29T00:40:24.722Z,7.83
2019-03-29T00:42:53.745Z,7.03
2019-03-29T00:45:22.334Z,8.70
2019-03-29T00:47:50.903Z,7.77
2019-03-29T00:50:19.502Z,6.40
2019-03-29T00:52:48.054Z,10.53
2019-03-29T00:55:16.632Z,6.97
2019-03-29T00:57:45.198Z,4.60
2019-03-29T01:00:14.115Z,7.57
2019-03-29T01:02:42.952Z,9.83
2019-03-29T01:05:11.894Z,6.83
2019-03-29T01:07:40.458Z,7.80
2019-03-29T01:10:09.168Z,9.43
2019-03-29T01:12:37.738Z,7.50
2019-03-29T01:15:09.061Z,9.50
2019-03-29T01:17:37.999Z,9.53
2019-03-29T01:20:08.374Z,7.97
2019-03-29T01:22:36.946Z,9.83
2019-03-29T01:25:07.995Z,10.70
2019-03-29T01:27:36.802Z,10.53
2019-03-29T01:30:07.174Z,12.47
2019-03-29T01:32:35.883Z,13.37
2019-03-29T01:35:06.998Z,8.63
2019-03-29T01:37:35.718Z,7.07
2019-03-29T01:40:05.430Z,10.57
2019-03-29T01:42:34.066Z,6.50
2019-03-29T01:45:02.711Z,8.50
2019-03-29T01:47:31.274Z,17.07
2019-03-29T01:49:59.850Z,7.13
2019-03-29T01:52:31.494Z,16.93
2019-03-29T01:54:58.734Z,11.13
2019-03-29T01:57:27.302Z,12.13
2019-03-29T01:59:55.938Z,12.10
2019-03-29T02:02:24.521Z,12.53
2019-03-29T02:04:53.090Z,11.10
2019-03-29T02:07:21.734Z,14.13
2019-03-29T02:09:50.310Z,17.40
2019-03-29T02:12:18.886Z,11.93
2019-03-29T02:14:47.722Z,12.50
2019-03-29T02:17:16.400Z,17.77
2019-03-29T02:19:45.066Z,12.23
2019-03-29T02:22:13.634Z,15.47
2019-03-29T02:24:42.213Z,12.20
2019-03-29T02:27:10.851Z,11.50
2019-03-29T02:29:39.434Z,11.00
2019-03-29T02:32:08.003Z,12.70
2019-03-29T02:34:36.586Z,15.83
2019-03-29T02:37:05.182Z,13.47
2019-03-29T02:39:33.799Z,14.17
2019-03-29T02:42:02.427Z,13.67
2019-03-29T02:44:30.995Z,11.77
2019-03-29T02:46:59.574Z,10.10
2019-03-29T02:49:28.150Z,13.23
2019-03-29T02:51:56.730Z,11.17
2019-03-29T02:54:25.294Z,20.20
2019-03-29T02:56:53.947Z,10.67
2019-03-29T02:59:22.508Z,14.63
2019-03-29T03:01:51.103Z,22.63
2019-03-29T03:04:19.675Z,20.03
2019-03-29T03:06:48.239Z,14.57
2019-03-29T03:09:16.890Z,13.47
2019-03-29T03:11:45.459Z,11.40
2019-03-29T03:14:14.107Z,11.90
2019-03-29T03:16:42.720Z,22.27
2019-03-29T03:19:11.291Z,15.67
2019-03-29T03:21:39.926Z,18.90
2019-03-29T03:24:08.581Z,10.57
2019-03-29T03:26:37.218Z,16.10
2019-03-29T03:29:05.895Z,16.40
2019-03-29T03:31:34.479Z,17.63
2019-03-29T03:34:03.652Z,12.80
2019-03-29T03:36:32.187Z,12.77
2019-03-29T03:39:00.759Z,14.73
2019-03-29T03:41:29.670Z,13.80
2019-03-29T03:43:58.314Z,10.93
2019-03-29T03:46:27.356Z,11.80
2019-03-29T03:48:55.986Z,11.20
2019-03-29T03:51:24.697Z,17.03
2019-03-29T03:53:53.739Z,15.07
2019-03-29T03:56:22.842Z,18.50
2019-03-29T03:58:52.163Z,16.33
2019-03-29T04:01:20.819Z,16.00
2019-03-29T04:03:49.376Z,11.43
2019-03-29T04:06:17.943Z,18.67
2019-03-29T04:08:46.547Z,14.10
2019-03-29T04:11:15.107Z,18.37
2019-03-29T04:13:43.687Z,13.30
2019-03-29T04:16:12.261Z,11.73
2019-03-29T04:18:40.836Z,15.23
2019-03-29T04:21:09.430Z,15.97
2019-03-29T04:23:38.070Z,18.73
2019-03-29T04:26:06.647Z,16.33
2019-03-29T04:28:35.235Z,14.47
2019-03-29T04:31:04.092Z,13.80
2019-03-29T04:33:32.663Z,10.43
2019-03-29T04:36:01.242Z,21.20
2019-03-29T04:38:29.822Z,10.20
2019-03-29T04:40:58.411Z,16.83
2019-03-29T04:43:26.986Z,17.93
2019-03-29T04:45:55.572Z,7.33
2019-03-29T04:48:24.215Z,17.03
2019-03-29T04:50:52.840Z,21.17
2019-03-29T04:53:21.425Z,12.50
2019-03-29T04:55:50.043Z,14.77
2019-03-29T04:58:18.622Z,12.57
2019-03-29T05:00:47.367Z,18.53
2019-03-29T05:03:16.134Z,13.93
2019-03-29T05:05:44.784Z,20.97
2019-03-29T05:08:13.362Z,19.83
2019-03-29T05:10:41.944Z,12.33
2019-03-29T05:13:10.581Z,19.17
2019-03-29T05:15:39.198Z,21.27
2019-03-29T05:18:07.834Z,22.93
2019-03-29T05:20:36.414Z,16.13
2019-03-29T05:23:04.997Z,20.67
2019-03-29T05:25:33.706Z,17.97
2019-03-29T05:28:02.342Z,21.90
2019-03-29T05:30:30.914Z,17.93
2019-03-29T05:32:59.509Z,17.53
2019-03-29T05:35:29.682Z,23.30
2019-03-29T05:37:58.278Z,17.80
2019-03-29T05:40:34.962Z,14.57
2019-03-29T05:42:57.217Z,15.67
2019-03-29T05:45:25.806Z,18.20
2019-03-29T05:47:54.394Z,15.70
2019-03-29T05:50:22.971Z,14.27
2019-03-29T05:52:51.546Z,14.67
2019-03-29T05:55:32.015Z,9.63
2019-03-29T05:57:50.341Z,17.87
2019-03-29T06:00:19.454Z,16.67
2019-03-29T06:02:48.023Z,21.07
2019-03-29T06:05:16.682Z,15.13
2019-03-29T06:07:45.259Z,15.97
2019-03-29T06:10:13.966Z,19.20
2019-03-29T06:12:42.547Z,20.53
2019-03-29T06:15:11.258Z,19.13
2019-03-29T06:17:48.663Z,16.70
2019-03-29T06:20:10.408Z,16.77
2019-03-29T06:22:38.991Z,13.60
2019-03-29T06:25:08.399Z,8.30
2019-03-29T06:27:37.095Z,7.57
2019-03-29T06:30:07.901Z,19.97
2019-03-29T06:32:36.558Z,17.23
2019-03-29T06:35:07.334Z,14.33
2019-03-29T06:37:37.040Z,17.33
2019-03-29T06:40:08.707Z,15.80
2019-03-29T06:42:39.215Z,17.93
2019-03-29T06:45:07.746Z,16.57
2019-03-29T06:47:36.494Z,16.30
2019-03-29T06:50:07.286Z,18.47
2019-03-29T06:52:35.835Z,21.03
2019-03-29T06:55:04.943Z,18.00
2019-03-29T06:57:33.534Z,17.03
2019-03-29T07:00:03.388Z,14.43
2019-03-29T07:02:51.401Z,13.40
2019-03-29T07:05:20.053Z,17.50
2019-03-29T07:07:48.619Z,16.53
2019-03-29T07:10:17.251Z,19.97
2019-03-29T07:12:45.830Z,11.53
2019-03-29T07:15:14.556Z,19.80
2019-03-29T07:17:43.163Z,17.07
2019-03-29T07:20:11.869Z,23.57
2019-03-29T07:22:40.498Z,20.60
2019-03-29T07:25:09.914Z,20.70
2019-03-29T07:27:44.617Z,22.63
2019-03-29T07:30:09.754Z,23.97
2019-03-29T07:32:38.393Z,21.50
2019-03-29T07:35:08.012Z,25.03
2019-03-29T07:37:36.578Z,26.97
2019-03-29T07:40:05.602Z,24.70
2019-03-29T07:42:34.170Z,21.43
2019-03-29T07:45:03.018Z,23.73
2019-03-29T07:47:31.598Z,24.97
2019-03-29T07:50:00.362Z,27.40
2019-03-29T07:52:28.951Z,27.10
2019-03-29T07:54:57.518Z,24.30
2019-03-29T07:57:26.097Z,21.20
2019-03-29T07:59:54.830Z,27.13
2019-03-29T08:02:42.751Z,24.30
2019-03-29T08:05:11.566Z,21.57
2019-03-29T08:07:40.148Z,23.37
2019-03-29T08:10:09.066Z,26.27
2019-03-29T08:12:40.432Z,27.37
2019-03-29T08:15:09.822Z,25.33
2019-03-29T08:17:38.686Z,22.17
2019-03-29T08:20:37.369Z,25.43
2019-03-29T08:22:37.728Z,19.90
2019-03-29T08:25:06.550Z,20.90
2019-03-29T08:27:35.124Z,23.93
2019-03-29T08:30:04.587Z,23.33
2019-03-29T08:32:33.168Z,25.87
2019-03-29T08:35:01.741Z,23.87
2019-03-29T08:37:30.329Z,25.27
2019-03-29T08:39:58.974Z,23.83
2019-03-29T08:42:27.626Z,24.03
2019-03-29T08:44:56.200Z,23.53
2019-03-29T08:47:24.788Z,25.27
2019-03-29T08:49:53.406Z,23.63
2019-03-29T08:52:22.001Z,24.90
2019-03-29T08:54:51.291Z,19.23
2019-03-29T08:57:20.094Z,20.20
2019-03-29T08:59:48.679Z,22.33
2019-03-29T09:02:17.250Z,19.70
2019-03-29T09:04:45.895Z,17.47
2019-03-29T09:07:14.470Z,19.97
2019-03-29T09:09:46.266Z,22.20
2019-03-29T09:12:14.986Z,20.10
2019-03-29T09:14:43.875Z,22.30
2019-03-29T09:17:12.558Z,16.23
2019-03-29T09:19:41.098Z,21.57
2019-03-29T09:22:09.678Z,22.58
2019-03-29T09:24:38.256Z,22.40
2019-03-29T09:27:06.836Z,23.13
2019-03-29T09:29:35.405Z,20.03
2019-03-29T09:32:04.128Z,20.90
2019-03-29T09:34:32.698Z,18.27
2019-03-29T09:37:01.290Z,23.60
2019-03-29T09:39:29.860Z,16.63
2019-03-29T09:41:58.448Z,22.83
2019-03-29T09:44:27.027Z,18.23
2019-03-29T09:46:55.594Z,17.80
2019-03-29T09:49:24.182Z,21.80
2019-03-29T09:51:52.818Z,23.90
2019-03-29T09:54:21.416Z,19.00
2019-03-29T09:56:49.988Z,17.48
2019-03-29T09:59:18.934Z,21.93
2019-03-29T10:01:47.510Z,16.57
2019-03-29T10:04:16.103Z,18.47
2019-03-29T10:06:44.679Z,20.33
2019-03-29T10:09:13.362Z,19.83
2019-03-29T10:11:41.946Z,23.47
2019-03-29T10:14:10.524Z,17.40
2019-03-29T10:16:39.104Z,14.63
2019-03-29T10:19:07.675Z,20.85
2019-03-29T10:21:36.334Z,20.80
2019-03-29T10:24:05.062Z,17.50
2019-03-29T10:26:33.670Z,16.20
2019-03-29T10:29:02.214Z,18.98
2019-03-29T10:31:32.517Z,20.17
2019-03-29T10:34:01.027Z,23.83
2019-03-29T10:36:29.775Z,17.00
2019-03-29T10:38:58.358Z,16.00
2019-03-29T10:41:26.950Z,22.58
2019-03-29T10:43:55.547Z,17.10
2019-03-29T10:46:24.201Z,17.17
2019-03-29T10:48:52.935Z,15.78
2019-03-29T10:51:21.519Z,16.85
2019-03-29T10:53:50.090Z,18.23
2019-03-29T10:56:32.941Z,17.33
2019-03-29T10:58:48.890Z,15.90
2019-03-29T11:01:17.478Z,18.05
2019-03-29T11:03:46.119Z,21.50
2019-03-29T11:06:14.706Z,21.30
2019-03-29T11:08:43.660Z,21.05
2019-03-29T11:11:12.472Z,16.20
2019-03-29T11:13:41.421Z,14.07
2019-03-29T11:16:10.175Z,17.17
2019-03-29T11:18:38.782Z,15.08
2019-03-29T11:21:07.542Z,10.88
2019-03-29T11:23:36.129Z,13.32
2019-03-29T11:26:04.853Z,19.92
2019-03-29T11:28:33.487Z,9.40
2019-03-29T11:31:02.055Z,18.13
2019-03-29T11:33:30.694Z,16.17
2019-03-29T11:35:59.282Z,12.00
2019-03-29T11:38:27.854Z,18.23
2019-03-29T11:40:56.513Z,15.72
2019-03-29T11:43:27.231Z,14.50
2019-03-29T11:45:55.386Z,13.90
2019-03-29T11:48:24.095Z,15.57
2019-03-29T11:50:52.688Z,13.03
2019-03-29T11:53:21.264Z,15.43
2019-03-29T11:55:49.842Z,14.70
2019-03-29T11:58:18.495Z,14.78
2019-03-29T12:00:47.133Z,13.98
2019-03-29T12:03:15.960Z,19.57
2019-03-29T12:05:44.598Z,14.87
2019-03-29T12:08:13.318Z,14.80
2019-03-29T12:10:42.059Z,12.20
2019-03-29T12:13:11.285Z,16.53
2019-03-29T12:15:40.175Z,14.78
2019-03-29T12:18:08.990Z,20.32
2019-03-29T12:20:37.718Z,16.12
2019-03-29T12:23:06.290Z,15.63
2019-03-29T12:25:34.871Z,14.95
2019-03-29T12:28:03.709Z,13.20
2019-03-29T12:30:32.932Z,19.60
2019-03-29T12:33:01.570Z,12.45
2019-03-29T12:35:30.154Z,14.38
2019-03-29T12:37:58.727Z,17.25
2019-03-29T12:40:27.319Z,10.68
2019-03-29T12:42:55.890Z,10.00
2019-03-29T12:45:24.532Z,12.13
2019-03-29T12:47:53.121Z,13.95
2019-03-29T12:50:21.702Z,12.58
2019-03-29T12:52:50.358Z,12.95
2019-03-29T12:55:18.922Z,11.85
2019-03-29T12:57:47.508Z,15.63
2019-03-29T13:00:17.121Z,17.15
2019-03-29T13:02:45.779Z,9.35
2019-03-29T13:05:14.598Z,15.65
2019-03-29T13:07:43.171Z,11.93
2019-03-29T13:10:12.479Z,18.75
2019-03-29T13:12:41.107Z,14.17
2019-03-29T13:15:10.118Z,16.30
2019-03-29T13:17:38.838Z,13.08
2019-03-29T13:20:08.557Z,11.80
2019-03-29T13:22:37.194Z,14.70
2019-03-29T13:25:07.605Z,9.65
2019-03-29T13:27:36.650Z,13.35
2019-03-29T13:30:10.610Z,12.47
2019-03-29T13:32:39.319Z,14.03
2019-03-29T13:35:08.522Z,14.50
2019-03-29T13:37:37.242Z,8.57
2019-03-29T13:40:08.419Z,12.40
2019-03-29T13:42:37.194Z,8.13
2019-03-29T13:45:10.594Z,10.80
2019-03-29T13:47:39.264Z,12.40
2019-03-29T13:50:09.870Z,12.60
2019-03-29T13:52:38.461Z,13.13
2019-03-29T13:55:07.590Z,15.48
2019-03-29T13:57:36.256Z,11.33
2019-03-29T14:00:11.129Z,15.00
2019-03-29T14:02:40.082Z,10.72
2019-03-29T14:05:08.826Z,9.83
2019-03-29T14:07:37.466Z,10.88
2019-03-29T14:10:07.795Z,10.37
2019-03-29T14:12:37.101Z,13.40
2019-03-29T14:15:09.134Z,13.08
2019-03-29T14:17:37.710Z,12.37
2019-03-29T14:20:07.118Z,11.10
2019-03-29T14:22:35.702Z,11.75
2019-03-29T14:25:06.720Z,12.75
2019-03-29T14:27:35.302Z,17.07
2019-03-29T14:30:05.919Z,11.20
2019-03-29T14:32:34.506Z,15.70
2019-03-29T14:35:04.127Z,17.65
2019-03-29T14:37:32.718Z,11.00
2019-03-29T14:40:01.327Z,10.80
2019-03-29T14:42:29.986Z,13.70
2019-03-29T14:44:58.574Z,11.30
2019-03-29T14:47:39.713Z,12.93
2019-03-29T14:49:57.458Z,12.70
2019-03-29T14:52:26.034Z,11.57
2019-03-29T14:54:54.693Z,7.78
2019-03-29T14:57:23.262Z,12.47
2019-03-29T14:59:51.854Z,7.58
2019-03-29T15:02:22.188Z,17.17
2019-03-29T15:04:50.650Z,9.73
2019-03-29T15:07:20.378Z,15.60
2019-03-29T15:09:49.286Z,9.95
2019-03-29T15:12:17.862Z,13.50
2019-03-29T15:14:46.450Z,14.70
2019-03-29T15:17:15.031Z,13.33
2019-03-29T15:19:43.606Z,14.67
2019-03-29T15:22:12.194Z,13.70
2019-03-29T15:24:40.846Z,10.40
2019-03-29T15:27:09.421Z,9.70
2019-03-29T15:29:38.004Z,9.83
2019-03-29T15:32:06.641Z,12.77
2019-03-29T15:34:35.222Z,10.07
2019-03-29T15:37:03.798Z,12.73
2019-03-29T15:39:32.382Z,15.80
2019-03-29T15:42:01.134Z,11.03
2019-03-29T15:44:29.850Z,9.37
2019-03-29T15:46:58.494Z,13.93
2019-03-29T15:49:27.161Z,13.93
2019-03-29T15:51:55.743Z,18.03
2019-03-29T15:54:24.308Z,11.47
2019-03-29T15:56:52.970Z,13.80
2019-03-29T15:59:21.542Z,16.40
2019-03-29T16:01:50.122Z,12.97
2019-03-29T16:04:18.702Z,21.97
2019-03-29T16:06:47.351Z,10.00
2019-03-29T16:09:15.999Z,13.73
2019-03-29T16:11:44.571Z,15.10
2019-03-29T16:14:13.170Z,13.30
2019-03-29T16:16:42.073Z,13.67
2019-03-29T16:19:10.637Z,13.70
2019-03-29T16:21:39.210Z,11.30
2019-03-29T16:24:07.860Z,9.00
2019-03-29T16:26:36.506Z,13.97
2019-03-29T16:29:05.239Z,16.87
2019-03-29T16:31:33.806Z,14.77
2019-03-29T16:34:02.623Z,12.70
2019-03-29T16:36:31.230Z,14.40
2019-03-29T16:38:59.894Z,13.37
2019-03-29T16:41:28.477Z,10.27
2019-03-29T16:43:57.046Z,10.60
2019-03-29T16:46:25.629Z,14.37
2019-03-29T16:48:54.268Z,17.00
2019-03-29T16:51:22.855Z,13.53
2019-03-29T16:53:51.426Z,13.23
2019-03-29T16:56:20.454Z,17.60
2019-03-29T16:58:49.027Z,15.00
2019-03-29T17:01:17.662Z,12.27
2019-03-29T17:03:46.243Z,13.57
2019-03-29T17:06:15.022Z,20.03
2019-03-29T17:08:43.606Z,13.50
2019-03-29T17:11:12.178Z,10.80
2019-03-29T17:13:40.758Z,16.33
2019-03-29T17:16:09.332Z,12.37
2019-03-29T17:18:40.119Z,14.37
2019-03-29T17:21:08.246Z,18.13
2019-03-29T17:23:36.951Z,14.17
2019-03-29T17:26:05.686Z,15.53
2019-03-29T17:28:34.254Z,12.87
2019-03-29T17:31:07.768Z,11.20
2019-03-29T17:33:36.342Z,15.10
2019-03-29T17:36:05.135Z,15.50
2019-03-29T17:38:33.706Z,14.33
2019-03-29T17:41:02.415Z,13.57
2019-03-29T17:43:30.988Z,16.97
2019-03-29T17:45:59.571Z,19.00
2019-03-29T17:48:28.154Z,16.87
2019-03-29T17:50:56.753Z,16.63
2019-03-29T17:53:25.402Z,15.17
2019-03-29T17:55:54.122Z,10.33
2019-03-29T17:58:22.778Z,12.73
2019-03-29T18:00:51.418Z,21.83
2019-03-29T18:03:20.254Z,9.50
2019-03-29T18:05:48.881Z,15.13
2019-03-29T18:08:17.591Z,14.77
2019-03-29T18:10:46.242Z,10.33
2019-03-29T18:13:14.882Z,12.07
2019-03-29T18:15:43.622Z,10.10
2019-03-29T18:18:13.209Z,15.73
2019-03-29T18:20:42.234Z,18.70
2019-03-29T18:23:10.798Z,13.47
2019-03-29T18:25:39.671Z,13.90
2019-03-29T18:28:08.307Z,10.10
2019-03-29T18:30:39.678Z,11.07
2019-03-29T18:33:08.496Z,17.23
2019-03-29T18:35:37.297Z,10.60
2019-03-29T18:38:06.019Z,11.50
2019-03-29T18:40:34.654Z,12.37
2019-03-29T18:43:03.370Z,10.57
2019-03-29T18:45:32.031Z,12.93
2019-03-29T18:48:00.806Z,11.40
2019-03-29T18:50:29.380Z,11.90
2019-03-29T18:52:58.116Z,12.30
2019-03-29T18:55:26.826Z,14.90
2019-03-29T18:57:55.394Z,14.80
2019-03-29T19:00:29.298Z,14.50
2019-03-29T19:02:57.934Z,11.97
2019-03-29T19:05:27.631Z,13.43
2019-03-29T19:07:56.218Z,12.00
2019-03-29T19:10:25.014Z,12.83
2019-03-29T19:12:53.583Z,11.10
2019-03-29T19:15:22.313Z,9.33
2019-03-29T19:17:50.850Z,10.03
2019-03-29T19:20:27.387Z,10.03
2019-03-29T19:22:49.899Z,12.43
2019-03-29T19:25:18.554Z,8.90
2019-03-29T19:27:47.201Z,6.67
2019-03-29T19:30:16.207Z,10.53
2019-03-29T19:32:44.786Z,10.77
2019-03-29T19:35:13.431Z,12.63
2019-03-29T19:37:42.146Z,10.00
2019-03-29T19:40:11.454Z,12.27
2019-03-29T19:42:40.032Z,13.13
2019-03-29T19:45:10.042Z,13.30
2019-03-29T19:47:38.606Z,14.87
2019-03-29T19:50:07.723Z,12.87
2019-03-29T19:52:36.297Z,12.50
2019-03-29T19:55:06.214Z,14.10
2019-03-29T19:57:34.838Z,14.17
2019-03-29T20:00:08.517Z,16.63
2019-03-29T20:02:37.210Z,17.40
2019-03-29T20:05:08.187Z,18.00
2019-03-29T20:07:37.034Z,18.87
2019-03-29T20:10:07.640Z,27.60
2019-03-29T20:12:36.281Z,27.30
2019-03-29T20:15:06.585Z,22.57
2019-03-29T20:17:35.166Z,16.43
2019-03-29T20:20:05.774Z,20.60
2019-03-29T20:22:34.391Z,17.87
2019-03-29T20:25:03.038Z,20.93
2019-03-29T20:27:31.606Z,20.43
2019-03-29T20:30:00.276Z,20.70
2019-03-29T20:32:28.855Z,19.27
2019-03-29T20:34:57.430Z,17.27
2019-03-29T20:37:26.067Z,18.60
2019-03-29T20:39:54.665Z,23.00
2019-03-29T20:42:24.921Z,19.47
2019-03-29T20:44:53.621Z,19.63
2019-03-29T20:47:23.624Z,23.27
2019-03-29T20:49:52.384Z,24.67
2019-03-29T20:52:21.098Z,19.73
2019-03-29T20:54:49.972Z,24.93
2019-03-29T20:57:18.569Z,20.70
2019-03-29T20:59:47.249Z,20.83
2019-03-29T21:02:15.777Z,17.97
2019-03-29T21:04:44.349Z,19.80
2019-03-29T21:07:12.998Z,17.50
2019-03-29T21:09:41.638Z,27.53
2019-03-29T21:12:10.319Z,25.87
2019-03-29T21:14:38.886Z,14.13
2019-03-29T21:17:07.554Z,21.00
2019-03-29T21:19:36.131Z,18.37
2019-03-29T21:22:05.067Z,17.60
2019-03-29T21:24:33.638Z,26.57
2019-03-29T21:27:02.210Z,23.03
2019-03-29T21:29:30.924Z,23.53
2019-03-29T21:31:59.642Z,17.80
2019-03-29T21:34:28.441Z,21.43
2019-03-29T21:36:57.223Z,20.73
2019-03-29T21:39:25.891Z,17.80
2019-03-29T21:41:54.442Z,18.03
2019-03-29T21:44:23.099Z,19.80
2019-03-29T21:46:51.803Z,24.40
2019-03-29T21:49:20.366Z,18.70
2019-03-29T21:51:49.077Z,26.67
2019-03-29T21:54:17.690Z,20.00
2019-03-29T21:56:46.367Z,20.17
2019-03-29T21:59:14.934Z,13.20
2019-03-29T22:01:43.523Z,17.50
2019-03-29T22:04:12.218Z,20.90
2019-03-29T22:06:40.854Z,24.13
2019-03-29T22:09:09.511Z,26.00
2019-03-29T22:11:38.256Z,18.47
2019-03-29T22:14:06.972Z,13.73
2019-03-29T22:16:35.538Z,19.83
2019-03-29T22:19:04.342Z,14.17
2019-03-29T22:21:32.903Z,17.67
2019-03-29T22:24:01.626Z,25.57
2019-03-29T22:26:30.210Z,19.43
2019-03-29T22:28:58.783Z,21.00
2019-03-29T22:31:27.359Z,20.87
2019-03-29T22:33:56.030Z,14.07
2019-03-29T22:36:24.616Z,22.17
2019-03-29T22:38:53.169Z,18.17
2019-03-29T22:41:21.855Z,28.40
2019-03-29T22:43:50.418Z,19.20
2019-03-29T22:46:19.010Z,22.30
2019-03-29T22:48:52.518Z,17.37
2019-03-29T22:51:17.915Z,15.30
2019-03-29T22:53:46.494Z,19.63
2019-03-29T22:56:15.062Z,15.23
2019-03-29T22:58:43.814Z,16.60
2019-03-29T23:01:12.626Z,20.30
2019-03-29T23:03:41.399Z,21.77
2019-03-29T23:06:09.980Z,26.87
2019-03-29T23:08:38.546Z,18.57
2019-03-29T23:11:07.126Z,17.70
2019-03-29T23:13:35.693Z,19.17
2019-03-29T23:16:04.413Z,21.20
2019-03-29T23:18:32.978Z,21.67
2019-03-29T23:21:01.561Z,30.93
2019-03-29T23:23:30.130Z,22.57
2019-03-29T23:25:58.726Z,21.53
2019-03-29T23:28:28.201Z,19.93
2019-03-29T23:30:56.775Z,28.77
2019-03-29T23:33:25.354Z,21.20
2019-03-29T23:35:53.932Z,20.50
2019-03-29T23:38:22.503Z,33.20
2019-03-29T23:40:51.070Z,22.67
2019-03-29T23:43:19.646Z,19.80
2019-03-29T23:45:48.226Z,22.70
2019-03-29T23:48:16.897Z,25.80
2019-03-29T23:50:45.484Z,22.17
2019-03-29T23:53:14.062Z,21.63
2019-03-29T23:55:42.638Z,27.97
2019-03-29T23:58:11.207Z,26.33
